createdAt,value
2022-12-19T00:00:48.933Z,256.70
2022-12-19T00:03:37.458Z,265.35
2022-12-19T00:06:19.841Z,263.50
2022-12-19T00:09:08.266Z,272.88
2022-12-19T00:11:50.933Z,243.70
2022-12-19T00:14:39.177Z,265.45
2022-12-19T00:17:20.986Z,253.18
2022-12-19T00:20:09.425Z,265.73
2022-12-19T00:22:52.890Z,263.83
2022-12-19T00:25:41.260Z,266.67
2022-12-19T00:28:23.863Z,261.48
2022-12-19T00:31:13.261Z,255.43
2022-12-19T00:33:56.923Z,264.83
2022-12-19T00:36:46.921Z,245.38
2022-12-19T00:39:30.223Z,248.45
2022-12-19T00:42:18.892Z,249.25
2022-12-19T00:45:07.978Z,238.63
2022-12-19T00:47:56.269Z,247.65
2022-12-19T00:50:41.931Z,244.30
2022-12-19T00:53:30.203Z,246.43
2022-12-19T00:56:14.920Z,261.13
2022-12-19T00:59:04.230Z,241.93
2022-12-19T01:01:49.233Z,259.65
2022-12-19T01:04:41.584Z,270.73
2022-12-19T01:07:23.935Z,269.23
2022-12-19T01:10:17.277Z,272.27
2022-12-19T01:12:59.939Z,256.23
2022-12-19T01:15:43.214Z,268.17
2022-12-19T01:18:31.838Z,272.88
2022-12-19T01:21:20.196Z,272.65
2022-12-19T01:24:02.876Z,289.08
2022-12-19T01:26:45.116Z,280.23
2022-12-19T01:29:34.707Z,285.13
2022-12-19T01:32:26.897Z,278.40
2022-12-19T01:35:09.873Z,291.77
2022-12-19T01:38:09.926Z,281.67
2022-12-19T01:41:11.895Z,279.88
2022-12-19T01:44:10.824Z,274.00
2022-12-19T01:47:00.801Z,287.38
2022-12-19T01:49:49.878Z,274.63
2022-12-19T01:52:33.292Z,290.35
2022-12-19T01:55:21.832Z,285.50
2022-12-19T01:58:07.163Z,285.90
2022-12-19T02:00:55.898Z,301.75
2022-12-19T02:03:41.763Z,297.60
2022-12-19T02:06:31.855Z,313.23
2022-12-19T02:09:14.182Z,308.75
2022-12-19T02:12:02.946Z,301.17
2022-12-19T02:14:51.902Z,303.70
2022-12-19T02:18:00.781Z,309.98
2022-12-19T02:21:27.898Z,316.40
2022-12-19T02:24:33.372Z,311.85
2022-12-19T02:27:53.740Z,318.98
2022-12-19T02:31:02.274Z,321.48
2022-12-19T02:34:20.776Z,320.38
2022-12-19T02:37:44.024Z,312.73
2022-12-19T02:40:43.999Z,315.67
2022-12-19T02:43:31.180Z,349.95
2022-12-19T02:46:22.038Z,334.10
2022-12-19T02:49:05.517Z,328.20
2022-12-19T02:51:54.002Z,349.48
2022-12-19T02:54:45.073Z,362.75
2022-12-19T02:57:37.890Z,376.42
2022-12-19T03:00:23.802Z,369.92
2022-12-19T03:03:31.998Z,375.02
2022-12-19T03:06:32.202Z,402.10
2022-12-19T03:09:28.939Z,415.95
2022-12-19T03:12:23.874Z,395.95
2022-12-19T03:15:14.183Z,383.58
2022-12-19T03:17:57.902Z,383.10
2022-12-19T03:20:49.340Z,397.98
2022-12-19T03:23:37.885Z,386.80
2022-12-19T03:26:23.140Z,394.60
2022-12-19T03:29:31.852Z,375.60
2022-12-19T03:32:16.798Z,378.88
2022-12-19T03:35:13.847Z,384.60
2022-12-19T03:38:03.256Z,368.00
2022-12-19T03:40:53.846Z,359.45
2022-12-19T03:43:37.489Z,361.75
2022-12-19T03:46:38.804Z,335.38
2022-12-19T03:49:21.248Z,343.33
2022-12-19T03:52:19.826Z,336.67
2022-12-19T03:55:19.808Z,333.73
2022-12-19T03:58:13.997Z,327.30
2022-12-19T04:01:03.206Z,349.80
2022-12-19T04:03:46.062Z,323.13
2022-12-19T04:06:38.188Z,331.65
2022-12-19T04:09:30.908Z,328.92
2022-12-19T04:12:17.163Z,321.27
2022-12-19T04:15:05.937Z,314.08
2022-12-19T04:17:59.340Z,310.63
2022-12-19T04:20:52.904Z,321.17
2022-12-19T04:23:59.810Z,312.83
2022-12-19T04:26:53.176Z,317.40
2022-12-19T04:29:38.934Z,339.00
2022-12-19T04:32:22.498Z,312.23
2022-12-19T04:35:10.799Z,322.33
2022-12-19T04:38:00.372Z,312.10
2022-12-19T04:40:43.808Z,310.90
2022-12-19T04:43:33.195Z,320.38
2022-12-19T04:46:15.806Z,321.02
2022-12-19T04:49:10.808Z,320.23
2022-12-19T04:51:53.122Z,333.20
2022-12-19T04:54:42.845Z,344.25
2022-12-19T04:57:31.414Z,343.80
2022-12-19T05:00:15.845Z,356.27
2022-12-19T05:02:58.449Z,358.90
2022-12-19T05:05:47.813Z,345.35
2022-12-19T05:08:42.835Z,338.25
2022-12-19T05:11:31.790Z,335.00
2022-12-19T05:14:20.900Z,332.35
2022-12-19T05:17:03.097Z,331.25
2022-12-19T05:19:51.887Z,320.55
2022-12-19T05:22:40.861Z,316.88
2022-12-19T05:25:23.136Z,300.45
2022-12-19T05:28:11.908Z,297.35
2022-12-19T05:30:55.193Z,287.42
2022-12-19T05:33:44.811Z,291.75
2022-12-19T05:36:32.327Z,256.60
2022-12-19T05:39:22.811Z,282.80
2022-12-19T05:42:12.626Z,255.23
2022-12-19T05:44:55.029Z,273.27
2022-12-19T05:47:43.831Z,269.85
2022-12-19T05:50:32.243Z,264.77
2022-12-19T05:53:24.546Z,228.88
2022-12-19T05:56:10.931Z,264.35
2022-12-19T05:58:59.883Z,290.90
2022-12-19T06:01:42.478Z,298.52
2022-12-19T06:04:31.924Z,334.45
2022-12-19T06:07:21.342Z,327.00
2022-12-19T06:10:09.849Z,315.10
2022-12-19T06:12:52.600Z,339.90
2022-12-19T06:18:24.327Z,358.40
2022-12-19T06:21:18.875Z,344.05
2022-12-19T06:24:02.192Z,339.48
2022-12-19T06:26:50.757Z,358.30
2022-12-19T06:29:39.794Z,348.45
2022-12-19T06:32:22.190Z,336.33
2022-12-19T06:35:10.891Z,319.70
2022-12-19T06:37:56.560Z,338.50
2022-12-19T06:41:07.939Z,319.65
2022-12-19T06:43:57.138Z,304.27
2022-12-19T06:46:40.856Z,297.30
2022-12-19T06:49:29.158Z,279.23
2022-12-19T06:52:11.879Z,277.75
2022-12-19T06:55:00.847Z,278.65
2022-12-19T06:57:47.129Z,290.73
2022-12-19T07:00:36.021Z,278.70
2022-12-19T07:03:21.144Z,274.90
2022-12-19T07:06:09.803Z,262.13
2022-12-19T07:09:04.726Z,257.20
2022-12-19T07:11:53.896Z,239.25
2022-12-19T07:14:36.204Z,235.48
2022-12-19T07:17:25.955Z,241.20
2022-12-19T07:20:12.241Z,241.02
2022-12-19T07:23:00.850Z,260.25
2022-12-19T07:25:43.179Z,265.35
2022-12-19T07:28:31.796Z,270.35
2022-12-19T07:31:14.402Z,251.70
2022-12-19T07:34:02.808Z,261.38
2022-12-19T07:36:45.191Z,254.77
2022-12-19T07:39:33.939Z,259.45
2022-12-19T07:42:16.229Z,251.77
2022-12-19T07:45:05.882Z,254.45
2022-12-19T07:47:49.015Z,263.45
2022-12-19T07:50:37.868Z,293.02
2022-12-19T07:53:20.180Z,277.08
2022-12-19T07:56:08.816Z,286.60
2022-12-19T07:58:51.186Z,282.67
2022-12-19T08:01:40.008Z,325.40
2022-12-19T08:04:22.273Z,310.70
2022-12-19T08:07:10.963Z,353.73
2022-12-19T08:09:59.161Z,337.25
2022-12-19T08:12:41.944Z,333.13
2022-12-19T08:15:30.332Z,320.87
2022-12-19T08:18:12.864Z,311.58
2022-12-19T08:21:01.813Z,335.30
2022-12-19T08:23:53.787Z,311.23
2022-12-19T08:26:40.626Z,308.42
2022-12-19T08:29:31.846Z,302.65
2022-12-19T08:32:21.822Z,315.70
2022-12-19T08:35:04.892Z,314.27
2022-12-19T08:37:47.209Z,327.70
2022-12-19T08:40:35.829Z,314.52
2022-12-19T08:43:24.885Z,296.80
2022-12-19T08:46:08.164Z,281.77
2022-12-19T08:48:56.857Z,287.60
2022-12-19T08:51:39.150Z,281.52
2022-12-19T08:54:27.900Z,276.90
2022-12-19T08:57:10.443Z,279.10
2022-12-19T08:59:58.835Z,261.30
2022-12-19T09:02:49.051Z,240.57
2022-12-19T09:06:05.047Z,221.95
2022-12-19T09:08:40.863Z,205.40
2022-12-19T09:11:39.355Z,211.75
2022-12-19T09:14:41.862Z,208.13
2022-12-19T09:17:24.194Z,210.75
2022-12-19T09:20:18.105Z,214.57
2022-12-19T09:23:03.118Z,208.63
2022-12-19T09:25:51.902Z,208.43
2022-12-19T09:28:40.942Z,201.82
2022-12-19T09:31:26.311Z,201.65
2022-12-19T09:34:14.843Z,213.93
2022-12-19T09:36:57.057Z,262.90
2022-12-19T09:39:45.752Z,284.08
2022-12-19T09:42:54.925Z,281.83
2022-12-19T09:46:15.251Z,277.73
2022-12-19T09:49:05.836Z,275.13
2022-12-19T09:52:13.308Z,275.17
2022-12-19T09:55:06.872Z,272.30
2022-12-19T09:58:05.868Z,269.73
2022-12-19T10:01:04.900Z,267.00
2022-12-19T10:03:52.227Z,257.52
2022-12-19T10:07:21.232Z,261.98
2022-12-19T10:12:20.701Z,257.00
2022-12-19T10:13:16.310Z,243.38
2022-12-19T10:16:28.232Z,242.73
2022-12-19T10:19:31.899Z,239.32
2022-12-19T10:22:41.128Z,227.98
2022-12-19T10:25:48.802Z,222.57
2022-12-19T10:28:43.180Z,223.13
2022-12-19T10:31:47.025Z,226.38
2022-12-19T10:34:46.449Z,222.27
2022-12-19T10:37:51.890Z,223.80
2022-12-19T10:40:58.315Z,232.38
2022-12-19T10:44:13.803Z,229.45
2022-12-19T10:46:58.488Z,227.02
2022-12-19T10:49:47.912Z,228.02
2022-12-19T10:52:58.192Z,232.05
2022-12-19T10:56:01.893Z,222.00
2022-12-19T10:58:50.167Z,235.73
2022-12-19T11:01:42.958Z,227.73
2022-12-19T11:04:42.835Z,235.52
2022-12-19T11:07:32.251Z,236.07
2022-12-19T11:13:25.516Z,223.65
2022-12-19T11:19:27.859Z,206.40
2022-12-19T11:27:03.432Z,198.00
2022-12-19T11:29:34.766Z,186.57
2022-12-19T11:29:40.717Z,193.98
2022-12-19T11:30:05.171Z,182.50
2022-12-19T11:34:09.807Z,189.73
2022-12-19T11:37:29.156Z,194.35
2022-12-19T11:40:50.076Z,201.85
2022-12-19T11:43:44.646Z,194.75
2022-12-19T11:46:41.940Z,212.48
2022-12-19T11:49:49.072Z,205.02
2022-12-19T11:56:01.368Z,210.77
2022-12-19T12:01:48.519Z,240.95
2022-12-19T12:05:09.928Z,226.57
2022-12-19T12:08:20.005Z,223.55
2022-12-19T12:18:39.844Z,234.30
2022-12-19T12:24:56.213Z,231.93
2022-12-19T12:31:09.512Z,248.63
2022-12-19T12:31:19.068Z,235.77
2022-12-19T12:31:39.475Z,236.82
2022-12-19T12:31:53.450Z,252.15
2022-12-19T12:35:56.944Z,243.95
2022-12-19T12:38:00.386Z,233.45
2022-12-19T12:39:25.438Z,257.10
2022-12-19T12:42:24.150Z,248.40
2022-12-19T12:45:30.793Z,256.15
2022-12-19T12:48:31.306Z,251.70
2022-12-19T12:51:20.787Z,275.38
2022-12-19T12:54:22.120Z,261.13
2022-12-19T12:57:11.735Z,259.52
2022-12-19T13:00:01.867Z,265.95
2022-12-19T13:02:53.892Z,264.25
2022-12-19T13:05:54.904Z,268.73
2022-12-19T13:09:03.624Z,273.73
2022-12-19T13:12:23.693Z,274.23
2022-12-19T13:15:38.180Z,284.50
2022-12-19T13:18:41.771Z,279.10
2022-12-19T13:21:26.049Z,273.00
2022-12-19T13:24:29.719Z,284.50
2022-12-19T13:30:21.224Z,280.77
2022-12-19T13:33:02.726Z,286.65
2022-12-19T13:39:46.497Z,295.15
2022-12-19T13:39:55.761Z,303.23
2022-12-19T13:42:36.809Z,301.63
2022-12-19T13:45:43.864Z,269.00
2022-12-19T13:48:43.521Z,295.77
2022-12-19T13:51:26.872Z,277.88
2022-12-19T13:54:32.328Z,279.83
2022-12-19T13:57:32.873Z,292.23
2022-12-19T14:00:26.790Z,282.40
2022-12-19T14:03:10.489Z,278.17
2022-12-19T14:06:16.118Z,295.67
2022-12-19T14:09:41.548Z,284.55
2022-12-19T14:13:58.198Z,294.42
2022-12-19T14:16:03.764Z,288.55
2022-12-19T14:18:57.980Z,296.85
2022-12-19T14:24:49.111Z,294.90
2022-12-19T14:28:25.963Z,298.77
2022-12-19T14:30:42.464Z,290.98
2022-12-19T14:34:04.780Z,301.10
2022-12-19T14:37:03.089Z,312.40
2022-12-19T14:39:45.806Z,296.45
2022-12-19T14:43:56.859Z,305.05
2022-12-19T14:52:51.162Z,288.85
2022-12-19T14:54:08.630Z,308.73
2022-12-19T14:54:30.695Z,311.45
2022-12-19T14:56:16.204Z,309.48
2022-12-19T14:59:08.895Z,308.48
2022-12-19T15:02:27.831Z,324.02
2022-12-19T15:05:20.923Z,299.33
2022-12-19T15:08:03.499Z,333.52
2022-12-19T15:11:04.924Z,323.58
2022-12-19T15:14:57.681Z,316.50
2022-12-19T15:17:03.790Z,314.27
2022-12-19T15:19:53.115Z,318.13
2022-12-19T15:22:34.838Z,310.38
2022-12-19T15:26:02.048Z,317.20
2022-12-19T15:28:31.159Z,312.40
2022-12-19T15:31:48.830Z,317.88
2022-12-19T15:34:48.433Z,300.48
2022-12-19T15:37:39.051Z,306.70
2022-12-19T15:40:25.772Z,312.33
2022-12-19T15:43:53.280Z,305.20
2022-12-19T15:46:20.306Z,311.55
2022-12-19T15:49:09.697Z,313.60
2022-12-19T15:51:52.161Z,303.23
2022-12-19T15:54:49.683Z,322.98
2022-12-19T15:57:45.874Z,300.27
2022-12-19T16:00:33.905Z,303.35
2022-12-19T16:03:28.017Z,321.55
2022-12-19T16:06:26.147Z,318.88
2022-12-19T16:09:08.800Z,314.67
2022-12-19T16:12:00.223Z,306.55
2022-12-19T16:14:41.731Z,317.60
2022-12-19T16:17:26.142Z,311.88
2022-12-19T16:20:14.906Z,334.67
2022-12-19T16:23:04.162Z,303.80
2022-12-19T16:25:56.068Z,326.67
2022-12-19T16:28:39.422Z,308.60
2022-12-19T16:31:37.982Z,323.05
2022-12-19T16:34:23.417Z,323.25
2022-12-19T16:37:11.776Z,319.88
2022-12-19T16:40:00.834Z,323.27
2022-12-19T16:42:43.152Z,310.38
2022-12-19T16:45:33.787Z,319.67
2022-12-19T16:48:45.758Z,329.95
2022-12-19T16:51:36.779Z,322.75
2022-12-19T16:54:22.837Z,329.00
2022-12-19T16:57:09.646Z,336.65
2022-12-19T16:59:58.784Z,332.25
2022-12-19T17:02:43.875Z,332.65
2022-12-19T17:05:42.810Z,342.25
2022-12-19T17:08:25.778Z,331.55
2022-12-19T17:11:15.997Z,324.05
2022-12-19T17:14:05.998Z,324.55
2022-12-19T17:16:54.836Z,320.70
2022-12-19T17:19:42.708Z,312.77
2022-12-19T17:22:33.751Z,333.25
2022-12-19T17:25:23.946Z,327.83
2022-12-19T17:28:13.038Z,323.92
2022-12-19T17:30:58.619Z,316.75
2022-12-19T17:33:53.911Z,355.02
2022-12-19T17:36:37.886Z,354.10
2022-12-19T17:39:52.705Z,350.98
2022-12-19T17:42:37.585Z,345.75
2022-12-19T17:45:26.885Z,335.13
2022-12-19T17:48:29.921Z,343.05
2022-12-19T17:51:12.323Z,350.30
2022-12-19T17:54:00.784Z,343.00
2022-12-19T17:56:43.112Z,344.75
2022-12-19T17:59:31.793Z,358.33
2022-12-19T18:02:31.328Z,365.65
2022-12-19T18:05:39.841Z,364.17
2022-12-19T18:08:31.109Z,356.67
2022-12-19T18:11:38.304Z,355.67
2022-12-19T18:14:31.851Z,356.63
2022-12-19T18:17:17.530Z,366.40
2022-12-19T18:20:06.689Z,358.90
2022-12-19T18:22:49.490Z,340.67
2022-12-19T18:25:43.838Z,347.85
2022-12-19T18:28:33.645Z,341.10
2022-12-19T18:31:24.837Z,344.95
2022-12-19T18:34:15.229Z,341.13
2022-12-19T18:36:58.115Z,325.80
2022-12-19T18:39:46.785Z,327.58
2022-12-19T18:42:35.700Z,333.13
2022-12-19T18:45:37.780Z,326.40
2022-12-19T18:48:39.665Z,330.20
2022-12-19T18:51:31.755Z,344.25
2022-12-19T18:54:36.663Z,325.80
2022-12-19T18:57:25.784Z,343.88
2022-12-19T19:00:09.880Z,342.52
2022-12-19T19:03:09.928Z,334.25
2022-12-19T19:05:53.254Z,359.40
2022-12-19T19:08:42.859Z,346.90
2022-12-19T19:11:36.145Z,328.00
2022-12-19T19:14:24.747Z,340.02
2022-12-19T19:17:07.306Z,346.73
2022-12-19T19:19:55.734Z,348.23
2022-12-19T19:22:44.753Z,340.13
2022-12-19T19:25:27.279Z,349.40
2022-12-19T19:28:16.778Z,344.40
2022-12-19T19:31:07.917Z,335.50
2022-12-19T19:33:56.019Z,340.02
2022-12-19T19:36:47.759Z,346.17
2022-12-19T19:39:37.631Z,357.45
2022-12-19T19:42:28.109Z,340.33
2022-12-19T19:45:17.743Z,348.23
2022-12-19T19:48:00.276Z,345.20
2022-12-19T19:50:48.691Z,352.25
2022-12-19T19:53:37.676Z,343.52
2022-12-19T19:56:27.074Z,347.35
2022-12-19T19:59:09.828Z,348.00
2022-12-19T20:01:58.319Z,341.42
2022-12-19T20:04:40.761Z,348.90
2022-12-19T20:07:30.035Z,338.55
2022-12-19T20:10:14.732Z,336.85
2022-12-19T20:13:03.791Z,340.73
2022-12-19T20:15:49.745Z,341.48
2022-12-19T20:18:38.807Z,335.60
2022-12-19T20:21:21.251Z,336.65
2022-12-19T20:24:09.757Z,356.25
2022-12-19T20:26:52.221Z,346.83
2022-12-19T20:29:40.751Z,334.48
2022-12-19T20:32:23.099Z,324.10
2022-12-19T20:35:15.188Z,344.58
2022-12-19T20:38:03.803Z,337.27
2022-12-19T20:40:56.828Z,332.38
2022-12-19T20:43:39.736Z,338.42
2022-12-19T20:46:30.193Z,338.25
2022-12-19T20:49:12.808Z,332.77
2022-12-19T20:51:54.986Z,349.60
2022-12-19T20:54:45.714Z,324.52
2022-12-19T20:57:36.178Z,329.75
2022-12-19T21:00:18.706Z,329.35
2022-12-19T21:06:13.208Z,329.35
2022-12-19T21:09:03.711Z,348.60
2022-12-19T21:11:52.724Z,339.23
2022-12-19T21:14:41.084Z,345.25
2022-12-19T21:17:23.723Z,335.58
2022-12-19T21:20:06.496Z,339.33
2022-12-19T21:22:55.792Z,343.83
2022-12-19T21:25:37.940Z,348.35
2022-12-19T21:28:26.816Z,343.90
2022-12-19T21:31:18.300Z,332.83
2022-12-19T21:34:09.704Z,343.17
2022-12-19T21:36:51.930Z,342.40
2022-12-19T21:39:40.722Z,346.40
2022-12-19T21:42:22.907Z,341.83
2022-12-19T21:45:11.759Z,342.73
2022-12-19T21:48:00.051Z,347.33
2022-12-19T21:50:42.706Z,340.63
2022-12-19T21:53:24.905Z,358.42
2022-12-19T21:56:41.652Z,353.95
2022-12-19T21:59:30.656Z,345.00
2022-12-19T22:02:14.008Z,359.88
2022-12-19T22:05:02.750Z,336.48
2022-12-19T22:07:51.781Z,340.25
2022-12-19T22:10:35.935Z,339.05
2022-12-19T22:13:24.857Z,346.80
2022-12-19T22:16:08.482Z,334.25
2022-12-19T22:19:00.743Z,348.08
2022-12-19T22:21:43.167Z,325.60
2022-12-19T22:24:32.756Z,329.92
2022-12-19T22:27:23.792Z,346.27
2022-12-19T22:30:10.929Z,334.50
2022-12-19T22:32:53.919Z,326.25
2022-12-19T22:35:42.826Z,347.40
2022-12-19T22:38:32.029Z,347.08
2022-12-19T22:41:15.752Z,326.90
2022-12-19T22:44:11.552Z,335.85
2022-12-19T22:47:00.696Z,338.38
2022-12-19T22:49:43.083Z,343.58
2022-12-19T22:52:32.665Z,350.27
2022-12-19T22:55:16.003Z,334.52
2022-12-19T22:58:04.791Z,341.50
2022-12-19T23:00:47.004Z,334.50
2022-12-19T23:03:35.882Z,341.92
2022-12-19T23:06:18.026Z,323.63
2022-12-19T23:09:06.625Z,334.25
2022-12-19T23:11:51.091Z,330.70
2022-12-19T23:17:21.008Z,329.65
2022-12-19T23:20:09.736Z,329.27
2022-12-19T23:22:52.064Z,322.42
2022-12-19T23:25:49.729Z,335.60
2022-12-19T23:28:32.004Z,344.60
2022-12-19T23:31:21.696Z,337.00
2022-12-19T23:34:11.673Z,353.70
2022-12-19T23:37:10.171Z,348.13
2022-12-19T23:39:59.691Z,361.98
2022-12-19T23:42:42.055Z,353.42
2022-12-19T23:45:30.880Z,348.83
2022-12-19T23:48:13.018Z,344.77
2022-12-19T23:51:01.693Z,348.48
2022-12-19T23:53:44.993Z,350.25
2022-12-19T23:56:36.997Z,351.52
2022-12-19T23:59:25.032Z,356.10
